Time;durP1;ratioP1;P1;durP2;ratioP2;P2;SDS_P1;SDS_P2;PMS_P1;PMS_P2;Temp;Humidity;BMP_temperature;BMP_pressure;BME280_temperature;BME280_humidity;BME280_pressure;Samples;Min_cycle;Max_cycle;Signal;HPM_P1;HPM_P2
2022/03/30 00:02:02;;;;;;;18.00;11.30;;;11.40;79.90;;;;;;5053946;28;20227;-67
2022/03/30 00:04:28;;;;;;;16.77;11.97;;;11.20;80.20;;;;;;5040946;28;20192;-67
2022/03/30 00:06:53;;;;;;;17.63;12.60;;;11.10;80.20;;;;;;5041862;28;20195;-67
2022/03/30 00:09:19;;;;;;;17.77;12.43;;;11.20;80.60;;;;;;5055716;28;20290;-67
2022/03/30 00:11:45;;;;;;;18.13;12.40;;;11.00;80.70;;;;;;5064413;28;20631;-67
2022/03/30 00:14:10;;;;;;;15.10;11.57;;;11.10;81.10;;;;;;5041960;28;20184;-68
2022/03/30 00:16:36;;;;;;;16.83;11.07;;;11.20;81.50;;;;;;5043775;28;20294;-67
2022/03/30 00:19:02;;;;;;;17.80;12.70;;;11.40;81.30;;;;;;5060084;28;20188;-67
2022/03/30 00:21:28;;;;;;;18.60;13.00;;;11.50;80.90;;;;;;5042528;28;20222;-66
2022/03/30 00:23:54;;;;;;;16.50;12.40;;;11.40;80.80;;;;;;5057261;28;20187;-67
2022/03/30 00:26:19;;;;;;;15.80;11.47;;;11.30;80.60;;;;;;5054660;28;20188;-68
2022/03/30 00:28:45;;;;;;;15.10;11.93;;;11.10;80.40;;;;;;5054218;28;20189;-68
2022/03/30 00:31:12;;;;;;;14.60;11.67;;;11.20;81.40;;;;;;5060855;28;20192;-67
2022/03/30 00:33:37;;;;;;;18.02;12.63;;;11.20;81.60;;;;;;5043298;28;20199;-67
2022/03/30 00:36:04;;;;;;;18.13;12.80;;;11.40;81.90;;;;;;5056986;28;20216;-66
2022/03/30 00:38:29;;;;;;;20.60;13.98;;;11.60;81.50;;;;;;5057654;28;20660;-67
2022/03/30 00:40:55;;;;;;;15.33;12.80;;;11.20;81.10;;;;;;5062265;28;20192;-67
2022/03/30 00:43:21;;;;;;;16.43;12.77;;;11.60;81.20;;;;;;5062983;28;20667;-68
2022/03/30 00:45:46;;;;;;;17.40;13.47;;;11.50;80.60;;;;;;5052537;28;20201;-67
2022/03/30 00:48:12;;;;;;;19.47;13.40;;;11.60;81.00;;;;;;5064275;28;20207;-67
2022/03/30 00:50:38;;;;;;;21.20;12.57;;;12.00;81.30;;;;;;5064934;28;20196;-66
2022/03/30 00:53:04;;;;;;;16.23;12.93;;;11.40;80.40;;;;;;5062384;28;20474;-66
2022/03/30 00:55:30;;;;;;;19.43;13.33;;;11.40;80.80;;;;;;5055919;28;20216;-67
2022/03/30 00:57:57;;;;;;;21.98;13.60;;;11.60;81.30;;;;;;5037183;28;20725;-67
2022/03/30 01:00:24;;;;;;;15.45;12.48;;;11.70;81.60;;;;;;5060760;28;20643;-66
2022/03/30 01:02:51;;;;;;;16.35;13.32;;;11.50;81.10;;;;;;5061261;28;20200;-68
2022/03/30 01:05:17;;;;;;;21.88;13.93;;;11.60;81.40;;;;;;5053213;28;20184;-67
2022/03/30 01:07:43;;;;;;;20.02;13.43;;;11.70;82.00;;;;;;5055962;28;20230;-67
2022/03/30 01:10:10;;;;;;;15.30;12.40;;;11.60;82.20;;;;;;5055311;28;20258;-67
2022/03/30 01:12:39;;;;;;;17.35;12.18;;;11.60;82.50;;;;;;5037079;28;20204;-66
2022/03/30 01:15:09;;;;;;;17.98;12.75;;;11.70;82.10;;;;;;5049769;28;20275;-67
2022/03/30 01:17:37;;;;;;;17.88;12.43;;;11.80;82.10;;;;;;5038133;28;20188;-67
2022/03/30 01:20:03;;;;;;;18.38;12.77;;;11.80;81.90;;;;;;5057064;28;20181;-68
2022/03/30 01:22:29;;;;;;;19.58;12.65;;;11.80;81.90;;;;;;5059151;28;20199;-67
2022/03/30 01:24:55;;;;;;;16.70;12.80;;;11.90;81.90;;;;;;5055003;28;20192;-67
2022/03/30 01:27:20;;;;;;;21.17;13.30;;;12.00;82.00;;;;;;5037438;28;20188;-67
2022/03/30 01:32:30;;;;;;;23.02;12.65;;;11.90;82.20;;;;;;5053147;28;20215;-67
2022/03/30 01:34:58;;;;;;;21.30;14.10;;;11.70;82.90;;;;;;5049117;28;20192;-67
2022/03/30 01:37:25;;;;;;;20.25;14.30;;;11.80;83.50;;;;;;5059001;28;20212;-67
2022/03/30 01:39:51;;;;;;;19.38;13.93;;;11.90;83.60;;;;;;5057476;28;20247;-66
2022/03/30 01:42:17;;;;;;;14.87;13.27;;;11.80;83.30;;;;;;5058413;28;20240;-66
2022/03/30 01:44:44;;;;;;;17.50;13.50;;;11.90;83.10;;;;;;5062771;28;20192;-67
2022/03/30 01:47:10;;;;;;;16.98;13.02;;;12.10;82.90;;;;;;5065441;28;20234;-66
2022/03/30 01:49:36;;;;;;;22.07;13.87;;;12.10;83.00;;;;;;5057178;28;20192;-68
2022/03/30 01:52:02;;;;;;;25.35;13.90;;;12.00;82.60;;;;;;5058196;28;20947;-66
2022/03/30 01:54:33;;;;;;;14.25;12.45;;;11.60;82.50;;;;;;5054843;28;20192;-66
2022/03/30 01:56:59;;;;;;;19.83;14.07;;;12.00;82.80;;;;;;5054570;28;20212;-67
2022/03/30 01:59:25;;;;;;;15.60;13.27;;;11.90;82.70;;;;;;5047827;28;20219;-67
2022/03/30 02:01:52;;;;;;;16.60;13.45;;;12.10;82.90;;;;;;5055601;28;20565;-68
2022/03/30 02:04:18;;;;;;;17.65;13.95;;;11.80;83.30;;;;;;5056173;28;20284;-67
2022/03/30 02:06:44;;;;;;;20.52;13.73;;;11.90;83.40;;;;;;5050729;28;20197;-67
2022/03/30 02:09:12;;;;;;;17.83;14.30;;;11.70;83.40;;;;;;5057260;28;20260;-67
2022/03/30 02:11:38;;;;;;;20.50;13.45;;;11.70;83.50;;;;;;5055939;28;20467;-67
2022/03/30 02:14:04;;;;;;;24.88;15.20;;;11.90;83.60;;;;;;5053457;28;20514;-67
2022/03/30 02:16:29;;;;;;;17.17;13.27;;;12.10;83.40;;;;;;5061478;28;20212;-67
2022/03/30 02:18:55;;;;;;;16.20;13.97;;;12.20;83.00;;;;;;5061720;28;20196;-67
2022/03/30 02:21:21;;;;;;;16.40;13.07;;;12.20;82.90;;;;;;5053452;28;20438;-67
2022/03/30 02:23:47;;;;;;;19.60;14.07;;;12.40;83.00;;;;;;5046006;28;20185;-68
2022/03/30 02:26:15;;;;;;;18.70;13.23;;;12.30;82.90;;;;;;5055411;28;20555;-67
2022/03/30 02:28:43;;;;;;;18.27;13.45;;;12.30;84.10;;;;;;5050777;28;20312;-67
2022/03/30 02:31:09;;;;;;;21.70;13.75;;;12.40;85.70;;;;;;5054404;28;20190;-67
2022/03/30 02:33:36;;;;;;;20.88;14.45;;;12.20;85.90;;;;;;5057291;28;20193;-67
2022/03/30 02:36:02;;;;;;;17.80;14.15;;;12.20;84.30;;;;;;5043021;28;20216;-67
2022/03/30 02:38:28;;;;;;;21.65;14.75;;;12.10;85.00;;;;;;5051213;28;20279;-67
2022/03/30 02:40:53;;;;;;;18.40;13.33;;;12.10;85.60;;;;;;5063635;28;20327;-67
2022/03/30 02:43:19;;;;;;;21.20;14.27;;;11.90;86.60;;;;;;5056770;28;20208;-67
2022/03/30 02:45:46;;;;;;;18.23;13.10;;;11.90;86.30;;;;;;5058027;28;20177;-67
2022/03/30 02:48:18;;;;;;;19.40;13.35;;;12.10;86.50;;;;;;5055060;28;20206;-68
2022/03/30 02:50:48;;;;;;;21.80;13.80;;;12.10;86.50;;;;;;5057570;28;20263;-67
2022/03/30 02:53:18;;;;;;;18.67;13.38;;;12.00;86.20;;;;;;5058173;28;20231;-68
2022/03/30 02:55:43;;;;;;;19.17;14.02;;;11.90;86.10;;;;;;5065723;28;20209;-67
2022/03/30 02:58:10;;;;;;;16.57;12.83;;;12.30;86.50;;;;;;5058253;28;20191;-67
2022/03/30 03:00:37;;;;;;;19.20;14.63;;;12.10;86.20;;;;;;5056833;28;20816;-67
2022/03/30 03:03:04;;;;;;;18.20;14.25;;;11.90;86.10;;;;;;5059054;28;20213;-67
2022/03/30 03:05:32;;;;;;;17.73;13.60;;;11.90;86.40;;;;;;5051911;28;20193;-67
2022/03/30 03:08:02;;;;;;;16.45;13.90;;;11.90;86.40;;;;;;5062312;28;20212;-67
2022/03/30 03:10:29;;;;;;;17.00;13.80;;;11.90;86.40;;;;;;5061833;28;20188;-66
2022/03/30 03:12:55;;;;;;;18.95;13.82;;;11.70;86.30;;;;;;5054804;28;20736;-67
2022/03/30 03:15:22;;;;;;;16.15;13.18;;;11.90;87.10;;;;;;5058443;28;21335;-66
2022/03/30 03:17:49;;;;;;;21.63;13.40;;;11.60;87.10;;;;;;5056157;28;20666;-67
2022/03/30 03:20:14;;;;;;;16.58;12.88;;;11.70;87.70;;;;;;5041956;28;20189;-67
2022/03/30 03:22:41;;;;;;;15.17;12.33;;;11.80;87.80;;;;;;5056265;28;20204;-67
2022/03/30 03:25:08;;;;;;;18.13;13.95;;;11.70;87.50;;;;;;5054083;28;20989;-66
2022/03/30 03:27:34;;;;;;;16.42;13.50;;;11.90;88.10;;;;;;5051525;28;20198;-67
2022/03/30 03:30:00;;;;;;;21.03;13.27;;;12.00;88.70;;;;;;5042550;28;20263;-67
2022/03/30 03:32:26;;;;;;;19.17;13.73;;;12.00;87.70;;;;;;5064221;28;20203;-67
2022/03/30 03:34:52;;;;;;;25.20;15.23;;;12.00;87.60;;;;;;5057503;28;20421;-68
2022/03/30 03:37:17;;;;;;;24.13;13.90;;;11.80;87.40;;;;;;5057311;28;20718;-67
2022/03/30 03:39:43;;;;;;;23.33;13.73;;;11.80;88.10;;;;;;5061942;28;20437;-67
2022/03/30 03:42:09;;;;;;;20.03;13.40;;;11.70;87.80;;;;;;5060581;28;20512;-67
2022/03/30 03:44:35;;;;;;;20.53;13.87;;;11.90;87.70;;;;;;5059013;28;20435;-67
2022/03/30 03:47:00;;;;;;;19.30;14.53;;;11.90;87.40;;;;;;5065943;28;20271;-66
2022/03/30 03:49:26;;;;;;;22.47;16.47;;;11.90;86.90;;;;;;5058040;28;20192;-67
2022/03/30 03:51:51;;;;;;;18.67;13.90;;;12.20;86.60;;;;;;5065697;28;20296;-67
2022/03/30 03:54:17;;;;;;;20.10;13.53;;;12.10;86.30;;;;;;5065116;28;20803;-67
2022/03/30 03:56:43;;;;;;;19.40;13.53;;;12.20;86.50;;;;;;5055625;28;20208;-66
2022/03/30 03:59:10;;;;;;;17.75;14.50;;;12.20;86.80;;;;;;5058391;28;20442;-67
2022/03/30 04:01:35;;;;;;;20.08;13.82;;;11.90;86.80;;;;;;5056977;28;20682;-66
2022/03/30 04:04:01;;;;;;;18.67;13.47;;;12.20;87.00;;;;;;5061759;28;20210;-68
2022/03/30 04:06:27;;;;;;;17.03;14.73;;;12.10;86.90;;;;;;5054831;28;20630;-67
2022/03/30 04:08:54;;;;;;;17.67;13.10;;;11.90;87.30;;;;;;5065474;28;20466;-66
2022/03/30 04:11:20;;;;;;;18.40;13.50;;;12.30;88.30;;;;;;5036150;28;20185;-67
2022/03/30 04:13:45;;;;;;;16.23;13.37;;;12.20;88.40;;;;;;5059890;28;20188;-67
2022/03/30 04:16:11;;;;;;;15.50;13.73;;;12.10;88.40;;;;;;5057816;28;20500;-67
2022/03/30 04:18:36;;;;;;;17.27;12.63;;;12.10;88.10;;;;;;5055877;28;20235;-66
2022/03/30 04:21:02;;;;;;;22.00;13.67;;;12.40;88.60;;;;;;5053672;28;20192;-67
2022/03/30 04:23:28;;;;;;;19.20;14.23;;;12.10;87.70;;;;;;5055390;28;20210;-67
2022/03/30 04:25:53;;;;;;;18.63;13.10;;;12.00;89.20;;;;;;5063554;28;20227;-67
2022/03/30 04:28:19;;;;;;;19.40;13.70;;;12.20;89.30;;;;;;5057180;28;20184;-68
2022/03/30 04:30:45;;;;;;;17.30;14.30;;;12.10;89.70;;;;;;5061236;28;20184;-68
2022/03/30 04:33:10;;;;;;;16.20;13.80;;;11.90;90.00;;;;;;5051618;28;20540;-68
2022/03/30 04:35:36;;;;;;;20.40;14.30;;;12.10;90.50;;;;;;5055815;28;20213;-68
2022/03/30 04:38:02;;;;;;;21.20;14.57;;;12.10;90.60;;;;;;5063614;28;20948;-68
2022/03/30 04:40:28;;;;;;;19.85;14.43;;;12.00;91.10;;;;;;5059360;28;20268;-68
2022/03/30 04:42:55;;;;;;;21.38;13.68;;;12.00;91.30;;;;;;5055555;28;20194;-68
2022/03/30 04:45:21;;;;;;;20.17;12.48;;;12.10;92.60;;;;;;5051367;28;20273;-67
2022/03/30 04:47:47;;;;;;;18.15;12.38;;;12.10;91.80;;;;;;5063060;28;20194;-67
2022/03/30 04:50:13;;;;;;;16.52;11.80;;;12.00;92.70;;;;;;5054554;28;20189;-67
2022/03/30 04:52:40;;;;;;;20.87;12.77;;;11.90;94.00;;;;;;5055271;28;20560;-67
2022/03/30 04:55:07;;;;;;;19.95;11.90;;;11.90;94.40;;;;;;5056329;28;20443;-67
2022/03/30 04:57:33;;;;;;;17.02;10.93;;;11.90;95.80;;;;;;5059231;28;20654;-68
2022/03/30 04:59:58;;;;;;;20.70;13.57;;;12.00;95.90;;;;;;5052536;28;20188;-68
2022/03/30 05:02:26;;;;;;;15.10;11.13;;;11.80;96.70;;;;;;5058393;28;20625;-68
2022/03/30 05:04:52;;;;;;;19.52;12.10;;;11.90;96.90;;;;;;5056363;28;20188;-68
2022/03/30 05:07:18;;;;;;;19.35;11.63;;;12.10;97.70;;;;;;5065285;28;20295;-68
2022/03/30 05:09:44;;;;;;;22.57;12.47;;;11.80;98.00;;;;;;5056165;28;20634;-68
2022/03/30 05:12:10;;;;;;;21.33;11.95;;;11.60;98.70;;;;;;5052216;28;20201;-68
2022/03/30 05:14:36;;;;;;;20.45;12.43;;;11.80;99.70;;;;;;5052720;28;20268;-68
2022/03/30 05:17:02;;;;;;;17.00;11.20;;;11.40;99.90;;;;;;5062925;28;20583;-68
2022/03/30 05:19:28;;;;;;;19.95;12.73;;;11.70;99.90;;;;;;5049071;28;20352;-67
2022/03/30 05:21:54;;;;;;;21.23;12.90;;;11.60;99.90;;;;;;5059576;28;20218;-67
2022/03/30 05:24:19;;;;;;;17.70;12.40;;;11.40;99.90;;;;;;5062077;28;20192;-67
2022/03/30 05:26:48;;;;;;;19.70;11.87;;;11.40;99.90;;;;;;5058607;28;20282;-67
2022/03/30 05:29:14;;;;;;;17.27;11.43;;;11.30;99.90;;;;;;5056871;28;20198;-67
2022/03/30 05:31:39;;;;;;;19.13;13.17;;;11.20;99.90;;;;;;5056719;28;20203;-67
2022/03/30 05:34:05;;;;;;;24.40;14.60;;;11.30;99.90;;;;;;5061222;28;20187;-68
2022/03/30 05:36:31;;;;;;;19.03;12.50;;;11.10;99.90;;;;;;5054313;28;20220;-67
2022/03/30 05:38:56;;;;;;;19.87;12.93;;;11.10;99.90;;;;;;5062140;28;20515;-67
2022/03/30 05:41:22;;;;;;;22.23;14.13;;;10.80;99.90;;;;;;5040176;28;20180;-68
2022/03/30 05:43:48;;;;;;;21.50;13.50;;;11.10;99.90;;;;;;5050336;28;20325;-67
2022/03/30 05:46:13;;;;;;;21.63;12.07;;;10.90;99.90;;;;;;5054183;28;20187;-69
2022/03/30 05:48:39;;;;;;;21.17;13.67;;;10.70;99.90;;;;;;5054109;28;20188;-71
2022/03/30 05:51:05;;;;;;;23.65;16.00;;;10.50;99.90;;;;;;5034208;28;20751;-66
2022/03/30 05:53:31;;;;;;;20.07;14.90;;;10.40;99.90;;;;;;5052573;28;20306;-64
2022/03/30 05:55:56;;;;;;;20.77;13.43;;;10.20;99.90;;;;;;5059111;28;20472;-70
2022/03/30 05:58:22;;;;;;;21.50;13.30;;;10.80;99.90;;;;;;5054991;28;20190;-64
2022/03/30 06:00:50;;;;;;;21.50;13.70;;;11.00;99.90;;;;;;5058924;28;20189;-63
2022/03/30 06:03:16;;;;;;;21.90;15.15;;;11.00;99.90;;;;;;5054434;28;20261;-64
2022/03/30 06:05:43;;;;;;;20.92;13.98;;;10.70;99.90;;;;;;5050902;28;20220;-64
2022/03/30 06:08:09;;;;;;;22.08;14.20;;;10.70;99.90;;;;;;5059427;28;20221;-64
2022/03/30 06:10:35;;;;;;;25.80;14.07;;;10.70;99.90;;;;;;5060490;28;20272;-64
2022/03/30 06:13:02;;;;;;;19.13;13.32;;;10.80;99.90;;;;;;5046090;28;20390;-64
2022/03/30 06:15:28;;;;;;;25.85;13.93;;;10.50;99.90;;;;;;5051305;28;20279;-64
2022/03/30 06:17:55;;;;;;;21.73;12.88;;;10.90;99.90;;;;;;5054166;28;20191;-62
2022/03/30 06:20:25;;;;;;;21.27;14.48;;;11.10;99.90;;;;;;5048143;28;20696;-63
2022/03/30 06:22:55;;;;;;;21.23;13.63;;;10.70;99.90;;;;;;5062401;28;20211;-59
2022/03/30 06:25:24;;;;;;;21.92;13.13;;;10.80;99.90;;;;;;5052092;28;20181;-59
2022/03/30 06:27:51;;;;;;;18.50;12.93;;;10.70;99.90;;;;;;5054984;28;20178;-60
2022/03/30 06:30:16;;;;;;;23.00;12.88;;;10.80;99.90;;;;;;5057307;28;20190;-60
2022/03/30 06:32:42;;;;;;;24.83;14.73;;;10.70;99.90;;;;;;5056625;28;20199;-60
2022/03/30 06:35:08;;;;;;;21.53;12.90;;;11.00;99.90;;;;;;5051776;28;20203;-60
2022/03/30 06:37:34;;;;;;;23.70;13.57;;;11.00;99.90;;;;;;5049550;28;20225;-62
2022/03/30 06:39:59;;;;;;;22.87;13.83;;;11.10;99.90;;;;;;5053962;28;20189;-63
2022/03/30 06:42:25;;;;;;;22.97;14.50;;;11.00;99.90;;;;;;5051108;28;20239;-63
2022/03/30 06:44:50;;;;;;;25.07;15.07;;;10.80;99.90;;;;;;5051800;28;20193;-64
2022/03/30 06:47:16;;;;;;;20.37;14.80;;;11.00;99.90;;;;;;5035512;28;20664;-63
2022/03/30 06:49:42;;;;;;;21.47;13.90;;;10.90;99.90;;;;;;5046650;28;20193;-63
2022/03/30 06:52:09;;;;;;;22.73;14.40;;;10.80;99.90;;;;;;5051242;28;20218;-62
2022/03/30 06:54:36;;;;;;;23.02;15.18;;;11.10;99.90;;;;;;5050498;28;20868;-63
2022/03/30 06:57:03;;;;;;;23.52;13.98;;;11.20;99.90;;;;;;5053913;28;20223;-61
2022/03/30 06:59:29;;;;;;;21.25;16.02;;;11.00;99.90;;;;;;5050359;28;20176;-62
2022/03/30 07:01:58;;;;;;;22.50;15.70;;;11.10;99.90;;;;;;5052379;28;20253;-63
2022/03/30 07:04:24;;;;;;;25.13;15.63;;;11.10;99.90;;;;;;5054388;28;20959;-61
2022/03/30 07:12:19;;;;;;;28.25;17.55;;;11.00;99.90;;;;;;5054454;28;20212;-61
2022/03/30 07:14:47;;;;;;;24.77;17.80;;;11.10;99.90;;;;;;5056273;28;20196;-61
2022/03/30 07:17:13;;;;;;;24.83;16.75;;;10.90;99.90;;;;;;5058801;28;20306;-60
2022/03/30 07:19:43;;;;;;;23.10;15.40;;;10.90;99.90;;;;;;5054613;28;20265;-61
2022/03/30 07:22:13;;;;;;;20.15;14.60;;;11.30;99.90;;;;;;5060777;28;20467;-60
2022/03/30 07:24:39;;;;;;;20.92;15.75;;;11.00;99.90;;;;;;5051324;28;20702;-60
2022/03/30 07:27:05;;;;;;;19.20;14.45;;;11.10;99.90;;;;;;5054633;28;20218;-64
2022/03/30 07:29:31;;;;;;;22.77;13.80;;;11.00;99.90;;;;;;5055245;28;20279;-66
2022/03/30 07:31:56;;;;;;;25.57;13.40;;;11.10;99.90;;;;;;5036453;28;20213;-62
2022/03/30 07:34:22;;;;;;;23.33;13.90;;;11.30;99.90;;;;;;5050837;28;20209;-65
2022/03/30 07:36:48;;;;;;;22.80;13.80;;;11.60;99.90;;;;;;5052208;28;20246;-62
2022/03/30 07:39:14;;;;;;;23.52;14.80;;;11.40;99.90;;;;;;5056110;28;20199;-63
2022/03/30 07:41:40;;;;;;;20.15;14.32;;;11.50;99.90;;;;;;5058212;28;20212;-66
2022/03/30 07:44:06;;;;;;;24.17;16.47;;;11.20;99.90;;;;;;5051808;28;20187;-66
2022/03/30 07:46:32;;;;;;;19.60;13.80;;;11.40;99.90;;;;;;5058131;28;20180;-68
2022/03/30 07:48:58;;;;;;;22.30;14.15;;;11.60;99.90;;;;;;5052220;28;20676;-67
2022/03/30 07:51:24;;;;;;;19.80;13.30;;;11.40;99.90;;;;;;5052803;28;20200;-67
2022/03/30 07:53:50;;;;;;;20.10;15.80;;;11.50;99.90;;;;;;5057432;28;20428;-67
2022/03/30 07:56:16;;;;;;;15.20;13.40;;;11.60;99.90;;;;;;5059943;28;20304;-67
2022/03/30 07:58:41;;;;;;;16.07;11.73;;;11.70;99.90;;;;;;5050735;28;20926;-66
2022/03/30 08:01:07;;;;;;;18.23;13.13;;;11.40;99.90;;;;;;5053520;28;20463;-66
2022/03/30 08:03:32;;;;;;;21.37;11.60;;;11.40;99.90;;;;;;5054712;28;20235;-69
2022/03/30 08:05:58;;;;;;;19.60;12.87;;;11.30;99.90;;;;;;5051051;28;20187;-69
2022/03/30 08:08:23;;;;;;;23.00;12.87;;;11.20;99.90;;;;;;5050968;28;20218;-64
2022/03/30 08:10:49;;;;;;;20.83;12.70;;;11.40;99.90;;;;;;5057835;28;20242;-64
2022/03/30 08:13:15;;;;;;;24.90;13.07;;;11.20;99.90;;;;;;5056841;28;20312;-66
2022/03/30 08:15:42;;;;;;;22.47;11.40;;;11.90;99.90;;;;;;5053212;28;20216;-63
2022/03/30 08:18:09;;;;;;;19.92;13.30;;;11.30;99.90;;;;;;5053782;28;20200;-66
2022/03/30 08:23:19;;;;;;;15.82;12.30;;;11.60;99.90;;;;;;5050843;28;20300;-67
2022/03/30 08:25:45;;;;;;;19.67;10.90;;;11.40;99.90;;;;;;5055737;28;20180;-63
2022/03/30 08:28:11;;;;;;;16.20;11.40;;;11.60;99.90;;;;;;5053206;28;20203;-64
2022/03/30 08:30:37;;;;;;;18.38;11.70;;;11.50;99.90;;;;;;5045390;28;20421;-64
2022/03/30 08:33:03;;;;;;;17.23;11.82;;;11.60;99.90;;;;;;5053272;28;20218;-65
2022/03/30 08:35:30;;;;;;;19.30;11.43;;;11.60;99.90;;;;;;5037661;28;20638;-64
2022/03/30 08:37:56;;;;;;;15.82;11.60;;;11.70;99.90;;;;;;5052970;28;20422;-65
2022/03/30 08:40:22;;;;;;;16.00;11.97;;;11.80;99.90;;;;;;5061229;28;20185;-65
2022/03/30 08:42:48;;;;;;;19.80;12.10;;;11.50;99.90;;;;;;5056236;28;20919;-70
2022/03/30 08:45:14;;;;;;;17.38;12.48;;;11.50;99.90;;;;;;5054833;28;20189;-67
2022/03/30 08:47:40;;;;;;;21.10;10.70;;;11.30;99.90;;;;;;5053910;28;20181;-67
2022/03/30 08:50:07;;;;;;;17.53;11.93;;;11.90;99.90;;;;;;5052272;28;20189;-68
2022/03/30 08:52:33;;;;;;;16.45;10.65;;;11.60;99.90;;;;;;5052469;28;20612;-68
2022/03/30 08:54:59;;;;;;;20.38;11.00;;;11.90;99.90;;;;;;5058968;28;20395;-64
2022/03/30 08:57:26;;;;;;;17.48;11.32;;;11.40;99.90;;;;;;5053042;28;20217;-60
2022/03/30 09:00:14;;;;;;;18.35;10.80;;;11.90;99.90;;;;;;5053119;28;20226;-64
2022/03/30 09:02:45;;;;;;;15.27;11.32;;;11.60;99.90;;;;;;5054479;28;20212;-65
2022/03/30 09:05:22;;;;;;;18.08;11.00;;;11.90;99.90;;;;;;5048759;28;20195;-67
2022/03/30 09:07:51;;;;;;;15.57;10.90;;;11.30;99.90;;;;;;5055388;28;20191;-69
2022/03/30 09:10:21;;;;;;;17.02;10.45;;;11.70;99.90;;;;;;5058127;28;20187;-68
2022/03/30 09:12:52;;;;;;;21.40;9.90;;;11.90;99.90;;;;;;5055162;28;20196;-69
2022/03/30 09:15:20;;;;;;;17.70;9.32;;;12.00;99.90;;;;;;5051609;28;20649;-64
2022/03/30 09:17:46;;;;;;;20.80;10.52;;;11.90;99.90;;;;;;5060096;28;20326;-66
2022/03/30 09:20:19;;;;;;;15.50;10.33;;;11.90;99.90;;;;;;5055563;28;20189;-64
2022/03/30 09:22:47;;;;;;;19.00;10.93;;;12.10;99.90;;;;;;5038329;28;20554;-64
2022/03/30 09:25:14;;;;;;;18.25;10.32;;;11.80;99.90;;;;;;5044188;28;20191;-66
2022/03/30 09:27:42;;;;;;;14.88;10.68;;;11.80;99.90;;;;;;5058991;28;20179;-65
2022/03/30 09:30:14;;;;;;;17.98;9.80;;;11.70;99.90;;;;;;5049610;28;20189;-66
2022/03/30 09:32:41;;;;;;;13.90;10.25;;;11.80;99.90;;;;;;5054374;28;20677;-67
2022/03/30 09:35:19;;;;;;;15.18;10.13;;;11.70;99.90;;;;;;5056433;28;20196;-66
2022/03/30 09:38:06;;;;;;;16.23;11.63;;;12.10;99.90;;;;;;5055714;28;20653;-66
2022/03/30 09:40:44;;;;;;;15.55;9.20;;;11.80;99.90;;;;;;5040827;28;20280;-64
2022/03/30 09:43:13;;;;;;;16.98;9.95;;;12.10;99.90;;;;;;5050792;28;20345;-62
2022/03/30 09:45:39;;;;;;;18.15;10.98;;;12.00;99.90;;;;;;5053331;28;20238;-64
2022/03/30 09:48:13;;;;;;;20.53;12.30;;;12.10;99.90;;;;;;5039643;28;20293;-67
2022/03/30 09:50:44;;;;;;;20.13;10.40;;;11.90;99.90;;;;;;5048195;28;20520;-64
2022/03/30 09:53:14;;;;;;;19.55;9.57;;;11.90;99.90;;;;;;5045565;28;20212;-65
2022/03/30 09:55:59;;;;;;;15.27;10.10;;;12.20;99.90;;;;;;5048299;28;20312;-65
2022/03/30 09:58:27;;;;;;;15.52;10.70;;;12.20;99.90;;;;;;5050274;28;20231;-65
2022/03/30 10:01:16;;;;;;;16.85;10.77;;;12.50;99.90;;;;;;5048177;28;20181;-65
2022/03/30 10:03:43;;;;;;;18.17;10.50;;;12.40;99.90;;;;;;5049368;28;20205;-64
2022/03/30 10:06:15;;;;;;;26.35;10.98;;;12.50;99.90;;;;;;5050354;28;20268;-65
2022/03/30 10:08:42;;;;;;;14.20;10.90;;;12.20;99.90;;;;;;5055149;28;20200;-65
2022/03/30 10:11:13;;;;;;;12.50;10.80;;;12.30;99.90;;;;;;5051149;28;20650;-65
2022/03/30 10:13:39;;;;;;;20.58;10.25;;;12.30;99.90;;;;;;5054585;28;20642;-65
2022/03/30 10:16:06;;;;;;;17.90;11.10;;;12.50;99.90;;;;;;5052046;28;20205;-65
2022/03/30 10:18:32;;;;;;;17.40;11.35;;;12.60;99.90;;;;;;5053458;28;20642;-66
2022/03/30 10:21:17;;;;;;;15.93;10.50;;;12.40;99.90;;;;;;5051064;28;20200;-65
2022/03/30 10:24:14;;;;;;;23.67;11.60;;;12.60;99.90;;;;;;5048197;28;20658;-66
2022/03/30 10:27:01;;;;;;;15.70;9.90;;;13.20;99.90;;;;;;5056210;28;20188;-59
2022/03/30 10:29:29;;;;;;;14.75;9.90;;;13.20;99.90;;;;;;5051171;28;20216;-61
2022/03/30 10:32:09;;;;;;;14.20;10.15;;;13.20;99.90;;;;;;5045222;28;20208;-61
2022/03/30 10:34:50;;;;;;;15.48;10.00;;;13.50;99.90;;;;;;5053975;28;20677;-62
2022/03/30 10:37:27;;;;;;;17.73;12.05;;;13.70;99.90;;;;;;5048565;28;20197;-62
2022/03/30 10:40:03;;;;;;;15.18;11.57;;;13.90;99.90;;;;;;5051851;28;20172;-68
2022/03/30 10:42:54;;;;;;;17.50;11.40;;;13.90;99.90;;;;;;5049559;28;20315;-70
2022/03/30 10:45:31;;;;;;;14.63;10.77;;;13.80;99.90;;;;;;5049040;28;20177;-69
2022/03/30 10:48:14;;;;;;;20.00;10.63;;;13.90;99.90;;;;;;5052935;28;20203;-68
2022/03/30 10:50:47;;;;;;;17.45;11.48;;;14.20;99.90;;;;;;5038167;28;20245;-64
2022/03/30 10:53:34;;;;;;;16.85;11.88;;;14.40;99.90;;;;;;5047827;28;20201;-65
2022/03/30 10:56:14;;;;;;;14.43;10.73;;;14.30;99.90;;;;;;5048789;28;20342;-65
2022/03/30 10:58:48;;;;;;;17.27;12.90;;;14.20;99.90;;;;;;5053859;28;20251;-65
2022/03/30 11:01:35;;;;;;;22.80;11.88;;;15.00;99.90;;;;;;5053892;28;20567;-64
2022/03/30 11:04:05;;;;;;;12.90;9.15;;;14.50;99.90;;;;;;5050910;28;20311;-66
2022/03/30 11:06:36;;;;;;;14.27;10.00;;;14.60;99.90;;;;;;5055196;28;20242;-66
2022/03/30 11:09:03;;;;;;;18.15;10.82;;;14.80;99.90;;;;;;5051412;28;20201;-68
2022/03/30 11:11:50;;;;;;;13.38;10.02;;;14.80;99.90;;;;;;5050835;28;20209;-67
2022/03/30 11:14:32;;;;;;;15.93;10.00;;;14.60;99.90;;;;;;5050204;28;20184;-66
2022/03/30 11:17:02;;;;;;;15.82;11.52;;;14.50;99.90;;;;;;5052385;28;20618;-65
2022/03/30 11:19:46;;;;;;;13.73;11.52;;;14.40;99.90;;;;;;5048782;28;20184;-71
2022/03/30 11:22:13;;;;;;;15.07;9.55;;;14.30;99.90;;;;;;5053316;28;20224;-70
2022/03/30 11:24:42;;;;;;;18.05;10.15;;;14.30;99.90;;;;;;5051162;28;20173;-70
2022/03/30 11:27:07;;;;;;;12.85;9.43;;;14.00;99.90;;;;;;5048631;28;20316;-71
2022/03/30 11:29:47;;;;;;;16.20;9.60;;;13.90;99.90;;;;;;5037763;28;20718;-70
2022/03/30 11:32:18;;;;;;;10.68;8.77;;;14.20;99.90;;;;;;5047011;28;20662;-67
2022/03/30 11:34:47;;;;;;;23.23;10.15;;;14.30;99.90;;;;;;5052846;28;20186;-69
2022/03/30 11:37:13;;;;;;;14.18;10.70;;;14.30;99.90;;;;;;5048276;28;20296;-67
2022/03/30 11:39:40;;;;;;;14.43;10.50;;;14.10;99.90;;;;;;5051324;28;20188;-69
2022/03/30 11:42:06;;;;;;;20.73;11.02;;;14.00;99.90;;;;;;5048445;28;20209;-65
2022/03/30 11:47:19;;;;;;;13.88;10.48;;;14.10;99.90;;;;;;5046481;28;20301;-66
2022/03/30 11:49:55;;;;;;;17.35;10.52;;;14.30;99.90;;;;;;5052934;28;20194;-67
2022/03/30 11:52:24;;;;;;;16.92;10.50;;;14.50;99.90;;;;;;5055303;28;20267;-68
2022/03/30 11:54:52;;;;;;;16.98;11.68;;;14.40;99.90;;;;;;5059518;28;20181;-67
2022/03/30 11:57:19;;;;;;;15.25;10.65;;;14.30;99.90;;;;;;5055231;28;20238;-65
2022/03/30 12:00:05;;;;;;;15.82;11.40;;;14.30;99.90;;;;;;5051839;28;20566;-66
2022/03/30 12:02:30;;;;;;;15.93;12.10;;;14.30;99.90;;;;;;5058095;28;20246;-67
2022/03/30 12:04:57;;;;;;;17.27;12.17;;;14.10;99.90;;;;;;5054297;28;20189;-61
2022/03/30 12:07:24;;;;;;;15.88;12.27;;;14.00;99.90;;;;;;5052492;28;20327;-61
2022/03/30 12:09:55;;;;;;;14.25;12.15;;;14.30;99.90;;;;;;5055367;28;20651;-62
2022/03/30 12:12:36;;;;;;;17.25;14.07;;;14.50;99.90;;;;;;5055637;28;20211;-63
2022/03/30 12:15:22;;;;;;;14.52;11.55;;;14.40;99.90;;;;;;5039499;28;20216;-63
2022/03/30 12:17:56;;;;;;;18.02;13.77;;;14.20;99.90;;;;;;5055428;28;20224;-62
2022/03/30 12:20:33;;;;;;;17.88;13.55;;;14.10;99.90;;;;;;5036096;28;20173;-60
2022/03/30 12:23:06;;;;;;;16.40;12.73;;;13.90;99.90;;;;;;5053204;28;20197;-64
2022/03/30 12:25:34;;;;;;;17.35;14.23;;;13.90;99.90;;;;;;5057028;28;20182;-63
2022/03/30 12:28:00;;;;;;;19.92;12.95;;;13.90;99.90;;;;;;5058706;28;20727;-64
2022/03/30 12:30:30;;;;;;;15.10;12.70;;;14.30;99.90;;;;;;5053550;28;20201;-65
2022/03/30 12:32:56;;;;;;;17.13;13.30;;;14.10;99.90;;;;;;5051964;28;20206;-68
2022/03/30 12:35:22;;;;;;;17.85;13.35;;;14.30;99.90;;;;;;5050971;28;20228;-63
2022/03/30 12:37:49;;;;;;;22.08;12.98;;;14.00;99.90;;;;;;5058741;28;20200;-69
2022/03/30 12:40:19;;;;;;;15.57;12.82;;;13.90;99.90;;;;;;5042291;28;20741;-71
2022/03/30 12:42:46;;;;;;;16.52;11.77;;;13.90;99.90;;;;;;5052682;28;20205;-65
2022/03/30 12:45:14;;;;;;;11.15;9.48;;;13.80;99.90;;;;;;5034177;28;20599;-61
2022/03/30 12:48:02;;;;;;;10.55;9.02;;;13.70;99.90;;;;;;5053349;28;20272;-61